createdAt,value
2023-02-13T00:01:15.405Z,104277.47
2023-02-13T00:04:01.317Z,104283.66
2023-02-13T00:06:48.650Z,104279.28
2023-02-13T00:09:34.848Z,104274.91
2023-02-13T00:12:20.842Z,104270.53
2023-02-13T00:15:07.001Z,104279.34
2023-02-13T00:17:53.051Z,104273.16
2023-02-13T00:20:38.752Z,104274.00
2023-02-13T00:23:25.814Z,104272.25
2023-02-13T00:26:12.173Z,104267.91
2023-02-13T00:29:02.607Z,104266.16
2023-02-13T00:31:48.495Z,104269.72
2023-02-13T00:34:34.881Z,104267.06
2023-02-13T00:37:22.819Z,104267.97
2023-02-13T00:40:13.172Z,104269.69
2023-02-13T00:42:59.142Z,104270.53
2023-02-13T00:45:45.030Z,104274.09
2023-02-13T00:48:32.254Z,104274.13
2023-02-13T00:51:17.952Z,104273.25
2023-02-13T00:54:04.214Z,104272.44
2023-02-13T00:56:51.293Z,104269.81
2023-02-13T00:59:37.080Z,104271.59
2023-02-13T01:02:22.983Z,104268.97
2023-02-13T01:05:08.832Z,104270.72
2023-02-13T01:07:55.539Z,104274.25
2023-02-13T01:10:41.719Z,104274.25
2023-02-13T01:13:29.094Z,104269.00
2023-02-13T01:16:17.719Z,104268.97
2023-02-13T01:19:04.018Z,104258.44
2023-02-13T01:21:50.514Z,104265.41
2023-02-13T01:24:37.711Z,104258.41
2023-02-13T01:27:23.643Z,104257.56
2023-02-13T01:30:13.754Z,104256.72
2023-02-13T01:32:59.444Z,104249.69
2023-02-13T01:35:45.363Z,104241.81
2023-02-13T01:38:31.270Z,104247.97
2023-02-13T01:41:17.024Z,104240.00
2023-02-13T01:44:03.019Z,104239.13
2023-02-13T01:46:50.086Z,104239.13
2023-02-13T01:49:36.291Z,104243.59
2023-02-13T01:52:22.204Z,104240.94
2023-02-13T01:55:08.183Z,104235.66
2023-02-13T01:57:55.619Z,104234.81
2023-02-13T02:00:41.606Z,104234.81
2023-02-13T02:03:29.006Z,104231.25
2023-02-13T02:06:19.923Z,104241.88
2023-02-13T02:09:10.189Z,104240.09
2023-02-13T02:11:57.263Z,104229.56
2023-02-13T02:14:43.539Z,104229.59
2023-02-13T02:17:30.246Z,104227.78
2023-02-13T02:20:21.546Z,104226.06
2023-02-13T02:23:18.436Z,104229.56
2023-02-13T02:26:16.657Z,104226.97
2023-02-13T02:29:07.860Z,104213.75
2023-02-13T02:32:03.228Z,104215.50
2023-02-13T02:34:52.669Z,104212.91
2023-02-13T02:37:43.838Z,104209.44
2023-02-13T02:40:31.404Z,104212.94
2023-02-13T02:43:22.698Z,104212.94
2023-02-13T02:46:11.924Z,104206.75
2023-02-13T02:49:19.224Z,104215.56
2023-02-13T02:52:06.599Z,104207.69
2023-02-13T02:55:09.412Z,104206.84
2023-02-13T02:58:23.359Z,104199.81
2023-02-13T03:01:28.284Z,104199.75
2023-02-13T03:04:34.973Z,104196.19
2023-02-13T03:07:22.163Z,104201.50
2023-02-13T03:10:26.953Z,104198.00
2023-02-13T03:13:22.717Z,104203.25
2023-02-13T03:16:29.750Z,104206.75
2023-02-13T03:19:35.113Z,104198.91
2023-02-13T03:22:26.131Z,104196.28
2023-02-13T03:25:13.575Z,104206.84
2023-02-13T03:28:23.050Z,104205.06
2023-02-13T03:31:10.834Z,104200.69
2023-02-13T03:33:58.218Z,104200.69
2023-02-13T03:37:05.110Z,104203.34
2023-02-13T03:39:54.493Z,104209.47
2023-02-13T03:42:41.964Z,104213.84
2023-02-13T03:45:46.384Z,104212.06
2023-02-13T03:48:50.752Z,104209.44
2023-02-13T03:51:37.501Z,104209.47
2023-02-13T03:54:43.878Z,104220.06
2023-02-13T03:57:47.857Z,104207.78
2023-02-13T04:00:34.404Z,104212.97
2023-02-13T04:03:21.466Z,104220.94
2023-02-13T04:06:07.999Z,104211.28
2023-02-13T04:08:53.820Z,104212.19
2023-02-13T04:11:42.484Z,104215.72
2023-02-13T04:14:28.886Z,104205.16
2023-02-13T04:17:15.327Z,104213.09
2023-02-13T04:20:01.221Z,104201.66
2023-02-13T04:22:47.394Z,104209.59
2023-02-13T04:25:33.394Z,104199.00
2023-02-13T04:28:20.744Z,104205.97
2023-02-13T04:31:06.956Z,104210.38
2023-02-13T04:33:53.058Z,104198.94
2023-02-13T04:36:38.833Z,104202.47
2023-02-13T04:39:25.094Z,104203.41
2023-02-13T04:42:10.763Z,104198.13
2023-02-13T04:44:57.788Z,104200.72
2023-02-13T04:47:43.619Z,104197.25
2023-02-13T04:50:29.597Z,104197.25
2023-02-13T04:53:15.327Z,104195.53
2023-02-13T04:56:01.119Z,104198.19
2023-02-13T04:58:47.409Z,104193.75
2023-02-13T05:01:34.573Z,104197.25
2023-02-13T05:04:20.577Z,104193.75
2023-02-13T05:07:06.397Z,104200.75
2023-02-13T05:09:52.043Z,104199.91
2023-02-13T05:12:38.388Z,104197.22
2023-02-13T05:15:24.571Z,104205.03
2023-02-13T05:18:11.823Z,104209.31
2023-02-13T05:21:15.475Z,104209.28
2023-02-13T05:24:01.520Z,104212.78
2023-02-13T05:26:47.095Z,104209.28
2023-02-13T05:29:33.045Z,104211.88
2023-02-13T05:32:18.801Z,104212.75
2023-02-13T05:35:06.287Z,104213.56
2023-02-13T05:37:52.474Z,104207.38
2023-02-13T05:40:38.330Z,104216.09
2023-02-13T05:43:24.051Z,104214.31
2023-02-13T05:46:10.527Z,104208.09
2023-02-13T05:48:56.278Z,104208.06
2023-02-13T05:51:43.427Z,104209.75
2023-02-13T05:54:29.241Z,104207.06
2023-02-13T05:57:14.922Z,104200.09
2023-02-13T06:00:00.933Z,104204.47
2023-02-13T06:02:46.782Z,104202.72
2023-02-13T06:05:32.973Z,104191.31
2023-02-13T06:08:20.036Z,104199.19
2023-02-13T06:11:06.028Z,104194.78
2023-02-13T06:13:51.826Z,104195.56
2023-02-13T06:16:37.528Z,104199.94
2023-02-13T06:19:23.317Z,104195.47
2023-02-13T06:22:09.184Z,104194.56
2023-02-13T06:24:56.275Z,104193.69
2023-02-13T06:27:42.098Z,104190.16
2023-02-13T06:30:28.024Z,104180.50
2023-02-13T06:33:13.811Z,104177.03
2023-02-13T06:35:59.615Z,104177.94
2023-02-13T06:38:45.439Z,104172.66
2023-02-13T06:41:32.694Z,104177.94
2023-02-13T06:44:18.483Z,104178.84
2023-02-13T06:47:04.294Z,104176.25
2023-02-13T06:49:50.204Z,104177.16
2023-02-13T06:52:36.590Z,104179.81
2023-02-13T06:55:22.541Z,104182.41
2023-02-13T06:58:09.772Z,104168.38
2023-02-13T07:00:55.954Z,104171.88
2023-02-13T07:03:42.709Z,104172.78
2023-02-13T07:06:29.006Z,104167.50
2023-02-13T07:09:15.173Z,104170.09
2023-02-13T07:12:03.342Z,104163.88
2023-02-13T07:14:50.511Z,104169.13
2023-02-13T07:17:36.311Z,104168.13
2023-02-13T07:20:21.988Z,104173.38
2023-02-13T07:23:07.908Z,104170.69
2023-02-13T07:25:53.665Z,104170.69
2023-02-13T07:28:39.529Z,104168.00
2023-02-13T07:31:26.806Z,104175.00
2023-02-13T07:34:12.617Z,104167.97
2023-02-13T07:36:58.342Z,104168.88
2023-02-13T07:39:44.162Z,104167.97
2023-02-13T07:42:29.992Z,104168.88
2023-02-13T07:45:16.303Z,104174.06
2023-02-13T07:48:03.440Z,104178.41
2023-02-13T07:50:49.257Z,104183.72
2023-02-13T07:53:35.099Z,104184.53
2023-02-13T07:56:20.943Z,104184.50
2023-02-13T07:59:07.878Z,104180.94
2023-02-13T08:01:54.158Z,104179.03
2023-02-13T08:04:41.845Z,104184.25
2023-02-13T08:07:27.575Z,104177.19
2023-02-13T08:10:31.671Z,104176.22
2023-02-13T08:13:17.722Z,104181.44
2023-02-13T08:16:03.348Z,104187.50
2023-02-13T08:18:49.067Z,104187.31
2023-02-13T08:21:38.086Z,104194.25
2023-02-13T08:24:23.964Z,104183.63
2023-02-13T08:27:12.228Z,104197.56
2023-02-13T08:29:58.400Z,104196.53
2023-02-13T08:32:53.925Z,104198.16
2023-02-13T08:35:40.496Z,104206.00
2023-02-13T08:38:27.604Z,104204.97
2023-02-13T08:41:13.417Z,104207.47
2023-02-13T08:43:59.092Z,104206.41
2023-02-13T08:46:44.929Z,104202.75
2023-02-13T08:49:30.924Z,104201.75
2023-02-13T08:52:16.801Z,104203.41
2023-02-13T08:55:04.304Z,104203.25
2023-02-13T08:57:50.448Z,104199.59
2023-02-13T09:00:36.257Z,104193.28
2023-02-13T09:03:22.012Z,104193.91
2023-02-13T09:06:07.707Z,104185.09
2023-02-13T09:08:53.475Z,104167.19
2023-02-13T09:11:40.768Z,104152.09
2023-02-13T09:14:26.723Z,104143.94
2023-02-13T09:17:12.620Z,104133.16
2023-02-13T09:19:58.638Z,104113.59
2023-02-13T09:22:44.649Z,104106.28
2023-02-13T09:25:30.452Z,104090.19
2023-02-13T09:28:17.723Z,104074.19
2023-02-13T09:31:06.038Z,104058.09
2023-02-13T09:33:52.322Z,104022.69
2023-02-13T09:36:38.129Z,104000.41
2023-02-13T09:39:23.882Z,103973.69
2023-02-13T09:42:13.739Z,103956.75
2023-02-13T09:45:02.496Z,103924.03
2023-02-13T09:47:48.669Z,103882.28
2023-02-13T09:50:34.983Z,103852.88
2023-02-13T09:53:22.305Z,103818.28
2023-02-13T09:56:10.651Z,103781.66
2023-02-13T09:58:58.552Z,103754.91
2023-02-13T10:01:46.807Z,103733.31
2023-02-13T10:04:32.957Z,103706.56
2023-02-13T10:07:20.141Z,103687.75
2023-02-13T10:10:08.344Z,103639.91
2023-02-13T10:12:59.019Z,103616.34
2023-02-13T10:15:45.938Z,103583.25
2023-02-13T10:18:36.159Z,103549.47
2023-02-13T10:21:22.783Z,103512.09
2023-02-13T10:24:11.776Z,103470.34
2023-02-13T10:26:57.708Z,103400.31
2023-02-13T10:30:01.701Z,103332.91
2023-02-13T10:32:49.266Z,103273.31
2023-02-13T10:35:36.713Z,103213.22
2023-02-13T10:38:23.968Z,103151.97
2023-02-13T10:41:22.790Z,103099.59
2023-02-13T10:44:13.531Z,103056.88
2023-02-13T10:47:02.632Z,103033.72
2023-02-13T10:49:52.639Z,103007.94
2023-02-13T10:52:43.344Z,102978.56
2023-02-13T10:55:39.757Z,102958.88
2023-02-13T10:58:27.148Z,102953.38
2023-02-13T11:01:14.754Z,102932.16
2023-02-13T11:04:05.708Z,102911.75
2023-02-13T11:06:55.760Z,102897.41
2023-02-13T11:09:43.356Z,102898.25
2023-02-13T11:12:29.823Z,102878.16
2023-02-13T11:15:21.518Z,102871.63
2023-02-13T11:18:12.528Z,102851.06
2023-02-13T11:21:03.932Z,102847.47
2023-02-13T11:23:50.703Z,102836.47
2023-02-13T11:26:38.270Z,102837.78
2023-02-13T11:29:25.676Z,102838.38
2023-02-13T11:32:19.113Z,102832.56
2023-02-13T11:35:18.029Z,102827.34
2023-02-13T11:38:15.296Z,102831.13
2023-02-13T11:41:05.233Z,102824.59
2023-02-13T11:43:54.321Z,102822.81
2023-02-13T11:46:47.338Z,102822.81
2023-02-13T11:49:34.150Z,102826.97
2023-02-13T11:52:24.274Z,102825.81
2023-02-13T11:55:25.302Z,102831.22
2023-02-13T11:58:23.150Z,102824.38
2023-02-13T12:01:12.093Z,102841.53
2023-02-13T12:03:59.106Z,102847.38
2023-02-13T12:06:59.434Z,102848.91
2023-02-13T12:09:45.846Z,102848.91
2023-02-13T12:12:35.017Z,102862.97
2023-02-13T12:15:21.870Z,102866.16
2023-02-13T12:18:11.604Z,102873.59
2023-02-13T12:20:58.994Z,102877.75
2023-02-13T12:23:46.411Z,102874.44
2023-02-13T12:26:32.731Z,102881.28
2023-02-13T12:29:22.874Z,102881.16
2023-02-13T12:32:11.854Z,102886.69
2023-02-13T12:35:06.492Z,102891.56
2023-02-13T12:37:56.501Z,102894.50
2023-02-13T12:40:47.204Z,102893.94
2023-02-13T12:43:47.513Z,102890.72
2023-02-13T12:46:37.080Z,102892.72
2023-02-13T12:49:29.904Z,102897.47
2023-02-13T12:52:19.990Z,102906.47
2023-02-13T12:55:13.123Z,102910.19
2023-02-13T12:58:02.927Z,102914.19
2023-02-13T13:00:50.659Z,102910.84
2023-02-13T13:03:38.954Z,102912.91
2023-02-13T13:06:31.743Z,102909.16
2023-02-13T13:09:21.523Z,102912.16
2023-02-13T13:12:31.349Z,102916.31
2023-02-13T13:15:20.463Z,102906.84
2023-02-13T13:18:09.254Z,102918.31
2023-02-13T13:20:59.694Z,102920.03
2023-02-13T13:23:47.496Z,102917.66
2023-02-13T13:26:35.917Z,102906.84
2023-02-13T13:29:22.577Z,102917.47
2023-02-13T13:32:10.307Z,102906.84
2023-02-13T13:34:56.410Z,102910.00
2023-02-13T13:37:43.709Z,102913.59
2023-02-13T13:40:33.622Z,102917.09
2023-02-13T13:43:21.482Z,102908.16
2023-02-13T13:46:09.148Z,102920.38
2023-02-13T13:49:06.749Z,102923.38
2023-02-13T13:51:52.878Z,102913.06
2023-02-13T13:54:38.624Z,102911.84
2023-02-13T13:57:24.647Z,102898.66
2023-02-13T14:00:26.020Z,102897.03
2023-02-13T14:03:36.615Z,102899.63
2023-02-13T14:06:24.168Z,102897.34
2023-02-13T14:09:28.850Z,102896.03
2023-02-13T14:12:42.208Z,102893.28
2023-02-13T14:15:45.873Z,102898.41
2023-02-13T14:18:31.989Z,102889.69
2023-02-13T14:21:24.647Z,102894.13
2023-02-13T14:24:11.534Z,102889.03
2023-02-13T14:27:05.363Z,102893.28
2023-02-13T14:29:51.999Z,102892.13
2023-02-13T14:32:38.082Z,102892.44
2023-02-13T14:35:24.618Z,102896.78
2023-02-13T14:38:23.029Z,102892.13
2023-02-13T14:41:26.610Z,102902.47
2023-02-13T14:44:15.921Z,102905.88
2023-02-13T14:47:02.974Z,102899.31
2023-02-13T14:49:48.989Z,102893.16
2023-02-13T14:52:35.352Z,102901.59
2023-02-13T14:55:36.101Z,102903.97
2023-02-13T14:58:22.230Z,102891.75
2023-02-13T15:01:09.142Z,102894.66
2023-02-13T15:03:55.917Z,102893.81
2023-02-13T15:06:42.239Z,102893.75
2023-02-13T15:09:32.245Z,102898.00
2023-02-13T15:12:26.574Z,102900.75
2023-02-13T15:15:23.384Z,102900.91
2023-02-13T15:18:10.296Z,102899.03
2023-02-13T15:20:58.024Z,102910.00
2023-02-13T15:23:44.116Z,102907.34
2023-02-13T15:26:30.459Z,102908.31
2023-02-13T15:29:27.815Z,102916.34
2023-02-13T15:32:18.710Z,102922.41
2023-02-13T15:35:11.270Z,102924.81
2023-02-13T15:37:57.484Z,102924.06
2023-02-13T15:40:43.692Z,102927.72
2023-02-13T15:43:33.134Z,102927.59
2023-02-13T15:46:21.795Z,102927.50
2023-02-13T15:49:08.316Z,102932.91
2023-02-13T15:52:03.018Z,102932.91
2023-02-13T15:54:49.863Z,102928.72
2023-02-13T15:57:35.743Z,102933.00
2023-02-13T16:00:22.689Z,102941.81
2023-02-13T16:03:14.681Z,102935.09
2023-02-13T16:06:00.732Z,102940.97
2023-02-13T16:08:46.559Z,102943.81
2023-02-13T16:11:33.358Z,102947.47
2023-02-13T16:14:20.706Z,102939.53
2023-02-13T16:17:06.923Z,102944.47
2023-02-13T16:19:55.851Z,102943.50
2023-02-13T16:22:41.820Z,102943.81
2023-02-13T16:25:28.354Z,102939.31
2023-02-13T16:28:15.856Z,102942.25
2023-02-13T16:31:02.787Z,102941.03
2023-02-13T16:33:48.976Z,102954.50
2023-02-13T16:36:37.225Z,102961.00
2023-02-13T16:39:26.693Z,102972.75
2023-02-13T16:42:14.344Z,102969.56
2023-02-13T16:45:21.846Z,102974.41
2023-02-13T16:48:09.890Z,102983.44
2023-02-13T16:50:56.259Z,102990.22
2023-02-13T16:53:43.581Z,102995.63
2023-02-13T16:56:29.438Z,102996.81
2023-02-13T16:59:22.799Z,103001.56
2023-02-13T17:02:16.984Z,103011.56
2023-02-13T17:05:14.530Z,103017.19
2023-02-13T17:08:01.361Z,103025.56
2023-02-13T17:11:02.825Z,103031.13
2023-02-13T17:13:48.708Z,103042.16
2023-02-13T17:16:34.657Z,103048.38
2023-02-13T17:19:20.863Z,103057.66
2023-02-13T17:22:06.541Z,103070.50
2023-02-13T17:24:52.384Z,103076.88
2023-02-13T17:27:39.346Z,103086.81
2023-02-13T17:30:25.768Z,103100.50
2023-02-13T17:33:13.271Z,103112.19
2023-02-13T17:35:59.393Z,103120.47
2023-02-13T17:38:45.604Z,103134.28
2023-02-13T17:41:31.577Z,103143.25
2023-02-13T17:44:18.567Z,103162.91
2023-02-13T17:47:04.872Z,103177.56
2023-02-13T17:49:51.519Z,103186.53
2023-02-13T17:52:38.790Z,103203.63
2023-02-13T17:55:25.604Z,103225.84
2023-02-13T17:58:11.652Z,103224.47
2023-02-13T18:00:59.114Z,103236.28
2023-02-13T18:03:45.420Z,103247.00
2023-02-13T18:06:31.326Z,103261.41
2023-02-13T18:09:16.912Z,103282.91
2023-02-13T18:12:05.574Z,103296.38
2023-02-13T18:14:52.537Z,103310.69
2023-02-13T18:17:40.074Z,103329.31
2023-02-13T18:20:25.997Z,103349.94
2023-02-13T18:23:12.065Z,103359.94
2023-02-13T18:26:04.402Z,103373.22
2023-02-13T18:28:52.232Z,103388.38
2023-02-13T18:31:38.252Z,103400.09
2023-02-13T18:34:25.882Z,103420.59
2023-02-13T18:37:11.528Z,103430.47
2023-02-13T18:39:57.458Z,103442.94
2023-02-13T18:42:44.211Z,103452.03
2023-02-13T18:45:30.622Z,103468.03
2023-02-13T18:48:16.756Z,103481.44
2023-02-13T18:51:04.789Z,103489.50
2023-02-13T18:53:50.764Z,103514.38
2023-02-13T18:56:36.658Z,103523.34
2023-02-13T18:59:23.047Z,103532.34
2023-02-13T19:02:09.930Z,103546.56
2023-02-13T19:04:55.636Z,103567.91
2023-02-13T19:07:42.854Z,103580.34
2023-02-13T19:10:28.684Z,103598.13
2023-02-13T19:13:15.035Z,103607.03
2023-02-13T19:16:04.265Z,103609.97
2023-02-13T19:18:52.963Z,103627.63
2023-02-13T19:21:38.905Z,103640.13
2023-02-13T19:24:26.000Z,103644.72
2023-02-13T19:27:11.855Z,103650.19
2023-02-13T19:29:57.713Z,103655.56
2023-02-13T19:32:43.574Z,103667.13
2023-02-13T19:35:29.320Z,103669.94
2023-02-13T19:38:15.770Z,103677.94
2023-02-13T19:41:05.258Z,103698.22
2023-02-13T19:43:53.281Z,103706.25
2023-02-13T19:46:39.466Z,103716.91
2023-02-13T19:49:25.815Z,103735.38
2023-02-13T19:52:11.631Z,103749.50
2023-02-13T19:54:57.613Z,103761.84
2023-02-13T19:57:44.891Z,103780.34
2023-02-13T20:00:30.577Z,103783.13
2023-02-13T20:03:16.518Z,103800.72
2023-02-13T20:06:06.339Z,103808.69
2023-02-13T20:08:52.204Z,103815.78
2023-02-13T20:11:38.203Z,103817.66
2023-02-13T20:14:25.940Z,103826.47
2023-02-13T20:17:12.327Z,103836.22
2023-02-13T20:19:58.188Z,103847.66
2023-02-13T20:22:44.267Z,103852.06
2023-02-13T20:25:32.025Z,103858.28
2023-02-13T20:28:17.721Z,103873.22
2023-02-13T20:31:11.351Z,103882.03
2023-02-13T20:33:57.907Z,103889.09
2023-02-13T20:36:43.961Z,103894.41
2023-02-13T20:39:30.053Z,103899.69
2023-02-13T20:42:16.179Z,103904.13
2023-02-13T20:45:01.939Z,103916.44
2023-02-13T20:47:49.891Z,103920.00
2023-02-13T20:50:36.036Z,103923.50
2023-02-13T20:53:21.725Z,103935.78
2023-02-13T20:56:08.238Z,103936.72
2023-02-13T20:58:54.376Z,103941.09
2023-02-13T21:01:41.465Z,103948.13
2023-02-13T21:04:30.106Z,103942.09
2023-02-13T21:07:16.143Z,103952.59
2023-02-13T21:10:01.923Z,103960.47
2023-02-13T21:12:47.666Z,103968.38
2023-02-13T21:15:33.810Z,103971.03
2023-02-13T21:18:21.356Z,103966.72
2023-02-13T21:21:09.151Z,103966.72
2023-02-13T21:23:55.208Z,103973.75
2023-02-13T21:26:41.086Z,103972.91
2023-02-13T21:29:27.048Z,103980.78
2023-02-13T21:32:12.912Z,103986.03
2023-02-13T21:34:59.061Z,103986.91
2023-02-13T21:37:46.114Z,104001.75
2023-02-13T21:40:31.821Z,104001.78
2023-02-13T21:43:17.627Z,104005.28
2023-02-13T21:46:07.315Z,104010.56
2023-02-13T21:48:54.277Z,104009.69
2023-02-13T21:51:40.225Z,104008.81
2023-02-13T21:54:28.279Z,104011.47
2023-02-13T21:57:14.461Z,104012.34
2023-02-13T22:00:01.926Z,104021.06
2023-02-13T22:02:47.947Z,104021.09
2023-02-13T22:05:34.164Z,104020.22
2023-02-13T22:08:20.163Z,104023.72
2023-02-13T22:11:08.134Z,104028.06
2023-02-13T22:13:55.334Z,104029.84
2023-02-13T22:16:42.474Z,104038.56
2023-02-13T22:19:28.434Z,104035.09
2023-02-13T22:22:15.846Z,104042.06
2023-02-13T22:25:01.419Z,104035.09
2023-02-13T22:27:48.750Z,104034.25
2023-02-13T22:30:35.102Z,104045.56
2023-02-13T22:33:21.259Z,104043.84
2023-02-13T22:36:07.448Z,104050.81
2023-02-13T22:38:53.467Z,104056.91
2023-02-13T22:41:39.245Z,104071.72
2023-02-13T22:44:26.476Z,104073.50
2023-02-13T22:47:12.382Z,104067.38
2023-02-13T22:49:58.048Z,104065.66
2023-02-13T22:52:43.919Z,104066.53
2023-02-13T22:55:29.484Z,104074.38
2023-02-13T22:58:15.298Z,104068.28
2023-02-13T23:01:02.536Z,104069.16
2023-02-13T23:03:48.253Z,104076.13
2023-02-13T23:06:33.978Z,104077.84
2023-02-13T23:09:19.815Z,104074.38
2023-02-13T23:12:23.396Z,104077.88
2023-02-13T23:15:10.148Z,104083.09
2023-02-13T23:18:17.836Z,104085.72
2023-02-13T23:21:04.874Z,104083.97
2023-02-13T23:23:51.128Z,104092.69
2023-02-13T23:26:37.009Z,104089.22
2023-02-13T23:29:22.882Z,104086.59
2023-02-13T23:32:08.909Z,104094.44
2023-02-13T23:34:56.532Z,104090.97
2023-02-13T23:37:42.396Z,104095.31
2023-02-13T23:40:28.152Z,104094.47
2023-02-13T23:43:13.988Z,104091.84
2023-02-13T23:45:59.584Z,104090.94
2023-02-13T23:48:45.867Z,104097.06
2023-02-13T23:51:32.973Z,104087.47
2023-02-13T23:54:19.372Z,104103.16
2023-02-13T23:57:05.406Z,104084.84
2023-02-13T23:59:51.856Z,104091.84
